sensor_id;sensor_type;location;lat;lon;timestamp;P1;durP1;ratioP1;P2;durP2;ratioP2
56075;SDS011;41951;49.022;12.066;2022-08-27T00:00:17;8.95;;;5.70;;
56075;SDS011;41951;49.022;12.066;2022-08-27T00:02:43;9.85;;;5.60;;
56075;SDS011;41951;49.022;12.066;2022-08-27T00:05:10;8.38;;;5.43;;
56075;SDS011;41951;49.022;12.066;2022-08-27T00:07:38;8.30;;;5.57;;
56075;SDS011;41951;49.022;12.066;2022-08-27T00:10:05;8.48;;;5.75;;
56075;SDS011;41951;49.022;12.066;2022-08-27T00:12:33;16.83;;;6.15;;
56075;SDS011;41951;49.022;12.066;2022-08-27T00:14:59;10.57;;;5.95;;
56075;SDS011;41951;49.022;12.066;2022-08-27T00:17:25;11.00;;;6.60;;
56075;SDS011;41951;49.022;12.066;2022-08-27T00:19:51;11.85;;;6.18;;
56075;SDS011;41951;49.022;12.066;2022-08-27T00:22:17;14.48;;;6.68;;
56075;SDS011;41951;49.022;12.066;2022-08-27T00:24:43;11.18;;;6.32;;
56075;SDS011;41951;49.022;12.066;2022-08-27T00:27:08;10.55;;;6.97;;
56075;SDS011;41951;49.022;12.066;2022-08-27T00:29:34;8.20;;;6.15;;
56075;SDS011;41951;49.022;12.066;2022-08-27T00:31:59;8.60;;;6.00;;
56075;SDS011;41951;49.022;12.066;2022-08-27T00:34:25;10.27;;;6.15;;
56075;SDS011;41951;49.022;12.066;2022-08-27T00:36:51;10.43;;;6.30;;
56075;SDS011;41951;49.022;12.066;2022-08-27T00:39:17;10.18;;;6.18;;
56075;SDS011;41951;49.022;12.066;2022-08-27T00:41:44;9.68;;;5.95;;
56075;SDS011;41951;49.022;12.066;2022-08-27T00:44:10;10.32;;;5.88;;
56075;SDS011;41951;49.022;12.066;2022-08-27T00:46:41;10.60;;;6.00;;
56075;SDS011;41951;49.022;12.066;2022-08-27T00:49:16;8.65;;;5.80;;
56075;SDS011;41951;49.022;12.066;2022-08-27T00:52:06;12.65;;;6.07;;
56075;SDS011;41951;49.022;12.066;2022-08-27T00:54:38;11.18;;;6.30;;
56075;SDS011;41951;49.022;12.066;2022-08-27T00:57:05;9.93;;;6.10;;
56075;SDS011;41951;49.022;12.066;2022-08-27T00:59:30;8.65;;;5.78;;
56075;SDS011;41951;49.022;12.066;2022-08-27T01:01:57;12.60;;;6.43;;
56075;SDS011;41951;49.022;12.066;2022-08-27T01:04:42;11.25;;;6.60;;
56075;SDS011;41951;49.022;12.066;2022-08-27T01:07:10;10.98;;;6.65;;
56075;SDS011;41951;49.022;12.066;2022-08-27T01:09:38;11.15;;;6.75;;
56075;SDS011;41951;49.022;12.066;2022-08-27T01:12:04;11.90;;;6.78;;
56075;SDS011;41951;49.022;12.066;2022-08-27T01:14:30;12.35;;;7.15;;
56075;SDS011;41951;49.022;12.066;2022-08-27T01:16:56;13.52;;;7.00;;
56075;SDS011;41951;49.022;12.066;2022-08-27T01:19:33;11.68;;;6.78;;
56075;SDS011;41951;49.022;12.066;2022-08-27T01:22:08;11.00;;;6.30;;
56075;SDS011;41951;49.022;12.066;2022-08-27T01:24:44;10.25;;;7.18;;
56075;SDS011;41951;49.022;12.066;2022-08-27T01:27:12;9.27;;;6.43;;
56075;SDS011;41951;49.022;12.066;2022-08-27T01:29:41;11.48;;;6.80;;
56075;SDS011;41951;49.022;12.066;2022-08-27T01:32:09;12.48;;;6.25;;
56075;SDS011;41951;49.022;12.066;2022-08-27T01:34:40;12.27;;;6.03;;
56075;SDS011;41951;49.022;12.066;2022-08-27T01:37:07;10.15;;;6.40;;
56075;SDS011;41951;49.022;12.066;2022-08-27T01:39:33;11.98;;;6.47;;
56075;SDS011;41951;49.022;12.066;2022-08-27T01:42:03;11.20;;;6.82;;
56075;SDS011;41951;49.022;12.066;2022-08-27T01:44:40;12.63;;;7.15;;
56075;SDS011;41951;49.022;12.066;2022-08-27T01:47:11;16.95;;;7.45;;
56075;SDS011;41951;49.022;12.066;2022-08-27T01:49:37;11.73;;;7.47;;
56075;SDS011;41951;49.022;12.066;2022-08-27T01:52:03;12.00;;;7.50;;
56075;SDS011;41951;49.022;12.066;2022-08-27T01:54:29;10.70;;;7.25;;
56075;SDS011;41951;49.022;12.066;2022-08-27T01:56:56;11.07;;;6.93;;
56075;SDS011;41951;49.022;12.066;2022-08-27T01:59:22;10.30;;;7.45;;
56075;SDS011;41951;49.022;12.066;2022-08-27T02:01:47;13.15;;;7.38;;
56075;SDS011;41951;49.022;12.066;2022-08-27T02:04:13;9.88;;;7.25;;
56075;SDS011;41951;49.022;12.066;2022-08-27T02:06:38;16.08;;;8.23;;
56075;SDS011;41951;49.022;12.066;2022-08-27T02:09:04;12.55;;;7.45;;
56075;SDS011;41951;49.022;12.066;2022-08-27T02:11:30;11.88;;;7.30;;
56075;SDS011;41951;49.022;12.066;2022-08-27T02:13:55;12.77;;;7.68;;
56075;SDS011;41951;49.022;12.066;2022-08-27T02:16:21;11.18;;;7.70;;
56075;SDS011;41951;49.022;12.066;2022-08-27T02:18:47;12.90;;;7.57;;
56075;SDS011;41951;49.022;12.066;2022-08-27T02:21:12;12.05;;;7.85;;
56075;SDS011;41951;49.022;12.066;2022-08-27T02:23:39;11.73;;;8.00;;
56075;SDS011;41951;49.022;12.066;2022-08-27T02:26:06;9.88;;;7.22;;
56075;SDS011;41951;49.022;12.066;2022-08-27T02:28:33;11.63;;;7.63;;
56075;SDS011;41951;49.022;12.066;2022-08-27T02:30:59;14.60;;;8.60;;
56075;SDS011;41951;49.022;12.066;2022-08-27T02:33:25;14.07;;;9.00;;
56075;SDS011;41951;49.022;12.066;2022-08-27T02:35:51;11.57;;;8.50;;
56075;SDS011;41951;49.022;12.066;2022-08-27T02:38:16;11.43;;;7.95;;
56075;SDS011;41951;49.022;12.066;2022-08-27T02:40:43;11.25;;;7.47;;
56075;SDS011;41951;49.022;12.066;2022-08-27T02:43:09;13.65;;;8.48;;
56075;SDS011;41951;49.022;12.066;2022-08-27T02:45:35;9.98;;;7.13;;
56075;SDS011;41951;49.022;12.066;2022-08-27T02:48:02;12.45;;;8.43;;
56075;SDS011;41951;49.022;12.066;2022-08-27T02:50:28;15.23;;;7.93;;
56075;SDS011;41951;49.022;12.066;2022-08-27T02:52:54;12.25;;;7.05;;
56075;SDS011;41951;49.022;12.066;2022-08-27T02:55:20;14.88;;;8.60;;
56075;SDS011;41951;49.022;12.066;2022-08-27T02:57:46;15.82;;;8.93;;
56075;SDS011;41951;49.022;12.066;2022-08-27T03:00:15;15.00;;;8.32;;
56075;SDS011;41951;49.022;12.066;2022-08-27T03:02:42;12.05;;;7.57;;
56075;SDS011;41951;49.022;12.066;2022-08-27T03:05:09;13.60;;;7.43;;
56075;SDS011;41951;49.022;12.066;2022-08-27T03:07:36;11.75;;;8.10;;
56075;SDS011;41951;49.022;12.066;2022-08-27T03:10:02;10.73;;;8.25;;
56075;SDS011;41951;49.022;12.066;2022-08-27T03:12:29;11.27;;;7.25;;
56075;SDS011;41951;49.022;12.066;2022-08-27T03:14:55;12.10;;;7.20;;
56075;SDS011;41951;49.022;12.066;2022-08-27T03:17:21;11.70;;;7.97;;
56075;SDS011;41951;49.022;12.066;2022-08-27T03:20:06;9.88;;;7.00;;
56075;SDS011;41951;49.022;12.066;2022-08-27T03:22:33;13.05;;;7.18;;
56075;SDS011;41951;49.022;12.066;2022-08-27T03:25:00;13.00;;;7.55;;
56075;SDS011;41951;49.022;12.066;2022-08-27T03:27:26;13.15;;;7.28;;
56075;SDS011;41951;49.022;12.066;2022-08-27T03:29:52;10.77;;;7.57;;
56075;SDS011;41951;49.022;12.066;2022-08-27T03:32:18;12.05;;;7.15;;
56075;SDS011;41951;49.022;12.066;2022-08-27T03:34:43;9.50;;;7.45;;
56075;SDS011;41951;49.022;12.066;2022-08-27T03:37:09;12.52;;;7.13;;
56075;SDS011;41951;49.022;12.066;2022-08-27T03:39:35;11.00;;;7.10;;
56075;SDS011;41951;49.022;12.066;2022-08-27T03:42:01;11.15;;;6.97;;
56075;SDS011;41951;49.022;12.066;2022-08-27T03:44:26;9.45;;;6.68;;
56075;SDS011;41951;49.022;12.066;2022-08-27T03:46:52;9.57;;;6.57;;
56075;SDS011;41951;49.022;12.066;2022-08-27T03:49:19;13.20;;;8.80;;
56075;SDS011;41951;49.022;12.066;2022-08-27T03:51:45;14.05;;;8.30;;
56075;SDS011;41951;49.022;12.066;2022-08-27T03:54:11;14.68;;;8.55;;
56075;SDS011;41951;49.022;12.066;2022-08-27T03:56:37;11.10;;;8.00;;
56075;SDS011;41951;49.022;12.066;2022-08-27T03:59:05;11.05;;;7.85;;
56075;SDS011;41951;49.022;12.066;2022-08-27T04:01:31;11.38;;;7.90;;
56075;SDS011;41951;49.022;12.066;2022-08-27T04:03:57;10.57;;;7.90;;
56075;SDS011;41951;49.022;12.066;2022-08-27T04:06:23;12.23;;;7.75;;
56075;SDS011;41951;49.022;12.066;2022-08-27T04:08:48;12.38;;;7.93;;
56075;SDS011;41951;49.022;12.066;2022-08-27T04:11:14;9.82;;;7.20;;
56075;SDS011;41951;49.022;12.066;2022-08-27T04:13:39;13.68;;;8.10;;
56075;SDS011;41951;49.022;12.066;2022-08-27T04:16:05;12.27;;;8.00;;
56075;SDS011;41951;49.022;12.066;2022-08-27T04:18:31;12.73;;;8.48;;
56075;SDS011;41951;49.022;12.066;2022-08-27T04:20:57;13.25;;;8.40;;
56075;SDS011;41951;49.022;12.066;2022-08-27T04:23:30;15.32;;;8.15;;
56075;SDS011;41951;49.022;12.066;2022-08-27T04:25:56;15.60;;;8.88;;
56075;SDS011;41951;49.022;12.066;2022-08-27T04:28:22;12.20;;;7.93;;
56075;SDS011;41951;49.022;12.066;2022-08-27T04:30:47;11.50;;;7.72;;
56075;SDS011;41951;49.022;12.066;2022-08-27T04:33:13;14.23;;;8.05;;
56075;SDS011;41951;49.022;12.066;2022-08-27T04:35:39;13.65;;;8.52;;
56075;SDS011;41951;49.022;12.066;2022-08-27T04:38:05;15.38;;;8.55;;
56075;SDS011;41951;49.022;12.066;2022-08-27T04:40:31;14.07;;;8.35;;
56075;SDS011;41951;49.022;12.066;2022-08-27T04:43:16;13.18;;;7.68;;
56075;SDS011;41951;49.022;12.066;2022-08-27T04:45:45;13.13;;;8.88;;
56075;SDS011;41951;49.022;12.066;2022-08-27T04:50:40;11.23;;;7.57;;
56075;SDS011;41951;49.022;12.066;2022-08-27T04:53:07;15.88;;;9.13;;
56075;SDS011;41951;49.022;12.066;2022-08-27T04:55:33;13.63;;;7.63;;
56075;SDS011;41951;49.022;12.066;2022-08-27T04:58:05;12.55;;;8.52;;
56075;SDS011;41951;49.022;12.066;2022-08-27T05:00:32;13.57;;;9.07;;
56075;SDS011;41951;49.022;12.066;2022-08-27T05:02:57;14.57;;;8.80;;
56075;SDS011;41951;49.022;12.066;2022-08-27T05:05:25;12.98;;;8.57;;
56075;SDS011;41951;49.022;12.066;2022-08-27T05:07:51;13.25;;;8.10;;
56075;SDS011;41951;49.022;12.066;2022-08-27T05:10:16;9.95;;;7.65;;
56075;SDS011;41951;49.022;12.066;2022-08-27T05:12:42;10.48;;;7.30;;
56075;SDS011;41951;49.022;12.066;2022-08-27T05:15:08;12.60;;;7.40;;
56075;SDS011;41951;49.022;12.066;2022-08-27T05:17:34;9.15;;;6.60;;
56075;SDS011;41951;49.022;12.066;2022-08-27T05:19:59;12.82;;;7.82;;
56075;SDS011;41951;49.022;12.066;2022-08-27T05:22:25;12.32;;;7.32;;
56075;SDS011;41951;49.022;12.066;2022-08-27T05:24:51;9.95;;;6.80;;
56075;SDS011;41951;49.022;12.066;2022-08-27T05:27:17;9.70;;;7.03;;
56075;SDS011;41951;49.022;12.066;2022-08-27T05:29:43;10.60;;;7.35;;
56075;SDS011;41951;49.022;12.066;2022-08-27T05:32:08;13.50;;;6.97;;
56075;SDS011;41951;49.022;12.066;2022-08-27T05:34:34;8.82;;;6.78;;
56075;SDS011;41951;49.022;12.066;2022-08-27T05:36:59;10.60;;;7.18;;
56075;SDS011;41951;49.022;12.066;2022-08-27T05:39:25;10.70;;;7.15;;
56075;SDS011;41951;49.022;12.066;2022-08-27T05:41:54;13.13;;;7.28;;
56075;SDS011;41951;49.022;12.066;2022-08-27T05:44:21;10.10;;;6.57;;
56075;SDS011;41951;49.022;12.066;2022-08-27T05:46:46;12.63;;;8.50;;
56075;SDS011;41951;49.022;12.066;2022-08-27T05:49:12;10.18;;;7.43;;
56075;SDS011;41951;49.022;12.066;2022-08-27T05:51:38;12.10;;;7.65;;
56075;SDS011;41951;49.022;12.066;2022-08-27T05:54:06;13.25;;;8.35;;
56075;SDS011;41951;49.022;12.066;2022-08-27T05:56:36;11.90;;;8.00;;
56075;SDS011;41951;49.022;12.066;2022-08-27T05:59:02;15.23;;;8.30;;
56075;SDS011;41951;49.022;12.066;2022-08-27T06:01:47;13.20;;;8.48;;
56075;SDS011;41951;49.022;12.066;2022-08-27T06:04:15;14.50;;;8.10;;
56075;SDS011;41951;49.022;12.066;2022-08-27T06:06:42;14.18;;;8.50;;
56075;SDS011;41951;49.022;12.066;2022-08-27T06:09:11;13.75;;;8.20;;
56075;SDS011;41951;49.022;12.066;2022-08-27T06:11:39;11.98;;;8.02;;
56075;SDS011;41951;49.022;12.066;2022-08-27T06:14:05;11.48;;;7.57;;
56075;SDS011;41951;49.022;12.066;2022-08-27T06:16:32;12.57;;;8.15;;
56075;SDS011;41951;49.022;12.066;2022-08-27T06:18:59;13.10;;;8.23;;
56075;SDS011;41951;49.022;12.066;2022-08-27T06:21:24;14.93;;;8.50;;
56075;SDS011;41951;49.022;12.066;2022-08-27T06:23:51;15.20;;;7.50;;
56075;SDS011;41951;49.022;12.066;2022-08-27T06:26:18;11.73;;;8.00;;
56075;SDS011;41951;49.022;12.066;2022-08-27T06:28:44;12.30;;;8.45;;
56075;SDS011;41951;49.022;12.066;2022-08-27T06:31:12;11.23;;;8.85;;
56075;SDS011;41951;49.022;12.066;2022-08-27T06:33:42;17.20;;;9.07;;
56075;SDS011;41951;49.022;12.066;2022-08-27T06:36:10;11.23;;;8.13;;
56075;SDS011;41951;49.022;12.066;2022-08-27T06:38:38;11.90;;;8.07;;
56075;SDS011;41951;49.022;12.066;2022-08-27T06:41:06;13.18;;;8.15;;
56075;SDS011;41951;49.022;12.066;2022-08-27T06:43:34;14.25;;;8.07;;
56075;SDS011;41951;49.022;12.066;2022-08-27T06:46:02;14.20;;;8.20;;
56075;SDS011;41951;49.022;12.066;2022-08-27T06:48:29;15.43;;;7.78;;
56075;SDS011;41951;49.022;12.066;2022-08-27T06:50:55;13.45;;;7.93;;
56075;SDS011;41951;49.022;12.066;2022-08-27T06:53:20;13.05;;;8.18;;
56075;SDS011;41951;49.022;12.066;2022-08-27T06:55:46;14.25;;;8.07;;
56075;SDS011;41951;49.022;12.066;2022-08-27T06:58:13;16.70;;;11.60;;
56075;SDS011;41951;49.022;12.066;2022-08-27T07:00:40;12.73;;;7.40;;
56075;SDS011;41951;49.022;12.066;2022-08-27T07:03:06;13.95;;;8.57;;
56075;SDS011;41951;49.022;12.066;2022-08-27T07:05:35;11.50;;;8.27;;
56075;SDS011;41951;49.022;12.066;2022-08-27T07:08:03;13.80;;;9.27;;
56075;SDS011;41951;49.022;12.066;2022-08-27T07:10:30;13.23;;;9.07;;
56075;SDS011;41951;49.022;12.066;2022-08-27T07:12:56;17.15;;;10.20;;
56075;SDS011;41951;49.022;12.066;2022-08-27T07:15:23;14.27;;;9.70;;
56075;SDS011;41951;49.022;12.066;2022-08-27T07:17:49;34.00;;;22.65;;
56075;SDS011;41951;49.022;12.066;2022-08-27T07:20:16;18.50;;;13.52;;
56075;SDS011;41951;49.022;12.066;2022-08-27T07:22:42;20.17;;;14.20;;
56075;SDS011;41951;49.022;12.066;2022-08-27T07:25:10;20.80;;;13.68;;
56075;SDS011;41951;49.022;12.066;2022-08-27T07:27:38;17.02;;;13.02;;
56075;SDS011;41951;49.022;12.066;2022-08-27T07:30:05;21.30;;;10.98;;
56075;SDS011;41951;49.022;12.066;2022-08-27T07:32:33;16.40;;;10.93;;
56075;SDS011;41951;49.022;12.066;2022-08-27T07:34:59;13.48;;;9.15;;
56075;SDS011;41951;49.022;12.066;2022-08-27T07:37:24;14.18;;;8.90;;
56075;SDS011;41951;49.022;12.066;2022-08-27T07:39:50;13.43;;;8.93;;
56075;SDS011;41951;49.022;12.066;2022-08-27T07:42:16;14.50;;;9.82;;
56075;SDS011;41951;49.022;12.066;2022-08-27T07:45:00;12.63;;;8.68;;
56075;SDS011;41951;49.022;12.066;2022-08-27T07:47:25;11.07;;;8.27;;
56075;SDS011;41951;49.022;12.066;2022-08-27T07:49:51;14.13;;;9.90;;
56075;SDS011;41951;49.022;12.066;2022-08-27T07:52:17;21.08;;;12.43;;
56075;SDS011;41951;49.022;12.066;2022-08-27T07:54:42;12.70;;;9.57;;
56075;SDS011;41951;49.022;12.066;2022-08-27T07:57:08;13.48;;;10.15;;
56075;SDS011;41951;49.022;12.066;2022-08-27T07:59:34;12.00;;;9.15;;
56075;SDS011;41951;49.022;12.066;2022-08-27T08:02:00;11.57;;;9.40;;
56075;SDS011;41951;49.022;12.066;2022-08-27T08:04:26;15.75;;;9.30;;
56075;SDS011;41951;49.022;12.066;2022-08-27T08:06:51;15.85;;;9.10;;
56075;SDS011;41951;49.022;12.066;2022-08-27T08:09:18;16.63;;;9.77;;
56075;SDS011;41951;49.022;12.066;2022-08-27T08:11:46;18.00;;;10.10;;
56075;SDS011;41951;49.022;12.066;2022-08-27T08:14:11;13.73;;;9.35;;
56075;SDS011;41951;49.022;12.066;2022-08-27T08:16:37;18.52;;;10.20;;
56075;SDS011;41951;49.022;12.066;2022-08-27T08:19:03;14.65;;;9.52;;
56075;SDS011;41951;49.022;12.066;2022-08-27T08:21:29;14.32;;;9.43;;
56075;SDS011;41951;49.022;12.066;2022-08-27T08:23:54;16.35;;;9.50;;
56075;SDS011;41951;49.022;12.066;2022-08-27T08:26:20;14.82;;;9.07;;
56075;SDS011;41951;49.022;12.066;2022-08-27T08:28:46;14.88;;;8.88;;
56075;SDS011;41951;49.022;12.066;2022-08-27T08:31:12;13.95;;;9.27;;
56075;SDS011;41951;49.022;12.066;2022-08-27T08:33:38;15.25;;;8.82;;
56075;SDS011;41951;49.022;12.066;2022-08-27T08:38:30;16.67;;;8.68;;
56075;SDS011;41951;49.022;12.066;2022-08-27T08:40:56;16.65;;;8.57;;
56075;SDS011;41951;49.022;12.066;2022-08-27T08:43:36;14.50;;;8.95;;
56075;SDS011;41951;49.022;12.066;2022-08-27T08:48:39;11.45;;;9.10;;
56075;SDS011;41951;49.022;12.066;2022-08-27T08:51:22;15.50;;;9.23;;
56075;SDS011;41951;49.022;12.066;2022-08-27T08:53:52;18.13;;;9.90;;
56075;SDS011;41951;49.022;12.066;2022-08-27T08:59:35;12.35;;;7.68;;
56075;SDS011;41951;49.022;12.066;2022-08-27T09:02:09;13.68;;;9.88;;
56075;SDS011;41951;49.022;12.066;2022-08-27T09:04:37;17.13;;;11.83;;
56075;SDS011;41951;49.022;12.066;2022-08-27T09:07:04;13.98;;;10.00;;
56075;SDS011;41951;49.022;12.066;2022-08-27T09:09:45;17.77;;;10.32;;
56075;SDS011;41951;49.022;12.066;2022-08-27T09:12:17;16.33;;;11.55;;
56075;SDS011;41951;49.022;12.066;2022-08-27T09:14:57;14.18;;;10.57;;
56075;SDS011;41951;49.022;12.066;2022-08-27T09:17:46;14.88;;;11.02;;
56075;SDS011;41951;49.022;12.066;2022-08-27T09:20:13;16.92;;;10.20;;
56075;SDS011;41951;49.022;12.066;2022-08-27T09:25:19;15.45;;;10.18;;
56075;SDS011;41951;49.022;12.066;2022-08-27T09:27:55;12.45;;;9.90;;
56075;SDS011;41951;49.022;12.066;2022-08-27T09:30:25;16.83;;;10.68;;
56075;SDS011;41951;49.022;12.066;2022-08-27T09:32:53;13.98;;;9.88;;
56075;SDS011;41951;49.022;12.066;2022-08-27T09:35:22;13.77;;;9.13;;
56075;SDS011;41951;49.022;12.066;2022-08-27T09:37:51;15.38;;;9.73;;
56075;SDS011;41951;49.022;12.066;2022-08-27T09:42:48;13.32;;;11.00;;
56075;SDS011;41951;49.022;12.066;2022-08-27T09:45:19;17.55;;;11.52;;
56075;SDS011;41951;49.022;12.066;2022-08-27T09:48:16;23.92;;;15.15;;
56075;SDS011;41951;49.022;12.066;2022-08-27T09:50:47;13.13;;;9.40;;
56075;SDS011;41951;49.022;12.066;2022-08-27T09:53:16;16.60;;;9.65;;
56075;SDS011;41951;49.022;12.066;2022-08-27T09:55:46;11.25;;;8.70;;
56075;SDS011;41951;49.022;12.066;2022-08-27T09:58:21;13.82;;;9.07;;
56075;SDS011;41951;49.022;12.066;2022-08-27T10:01:15;14.63;;;9.80;;
56075;SDS011;41951;49.022;12.066;2022-08-27T10:03:45;13.30;;;10.05;;
56075;SDS011;41951;49.022;12.066;2022-08-27T10:06:12;17.65;;;9.95;;
56075;SDS011;41951;49.022;12.066;2022-08-27T10:08:47;15.30;;;10.30;;
56075;SDS011;41951;49.022;12.066;2022-08-27T10:11:21;17.13;;;10.23;;
56075;SDS011;41951;49.022;12.066;2022-08-27T10:13:59;22.73;;;11.93;;
56075;SDS011;41951;49.022;12.066;2022-08-27T10:27:33;29.00;;;15.63;;
56075;SDS011;41951;49.022;12.066;2022-08-27T10:30:32;26.23;;;15.32;;
56075;SDS011;41951;49.022;12.066;2022-08-27T10:38:37;17.70;;;13.05;;
56075;SDS011;41951;49.022;12.066;2022-08-27T10:41:17;18.00;;;11.90;;
56075;SDS011;41951;49.022;12.066;2022-08-27T10:55:06;17.25;;;10.30;;
56075;SDS011;41951;49.022;12.066;2022-08-27T11:00:28;16.38;;;10.50;;
56075;SDS011;41951;49.022;12.066;2022-08-27T11:03:01;15.07;;;8.90;;
56075;SDS011;41951;49.022;12.066;2022-08-27T11:05:34;11.80;;;8.63;;
56075;SDS011;41951;49.022;12.066;2022-08-27T11:10:56;11.30;;;9.05;;
56075;SDS011;41951;49.022;12.066;2022-08-27T11:13:32;15.32;;;8.35;;
56075;SDS011;41951;49.022;12.066;2022-08-27T11:16:05;11.48;;;6.95;;
56075;SDS011;41951;49.022;12.066;2022-08-27T11:18:46;12.65;;;7.57;;
56075;SDS011;41951;49.022;12.066;2022-08-27T11:24:13;9.13;;;7.05;;
56075;SDS011;41951;49.022;12.066;2022-08-27T11:26:43;13.95;;;7.85;;
56075;SDS011;41951;49.022;12.066;2022-08-27T11:29:15;10.73;;;7.35;;
56075;SDS011;41951;49.022;12.066;2022-08-27T11:32:19;9.32;;;6.72;;
56075;SDS011;41951;49.022;12.066;2022-08-27T11:34:55;12.27;;;8.68;;
56075;SDS011;41951;49.022;12.066;2022-08-27T11:42:51;8.85;;;5.63;;
56075;SDS011;41951;49.022;12.066;2022-08-27T11:45:21;7.07;;;4.57;;
56075;SDS011;41951;49.022;12.066;2022-08-27T11:47:59;12.52;;;5.18;;
56075;SDS011;41951;49.022;12.066;2022-08-27T11:50:28;9.88;;;5.28;;
56075;SDS011;41951;49.022;12.066;2022-08-27T11:55:27;9.52;;;5.80;;
56075;SDS011;41951;49.022;12.066;2022-08-27T12:00:45;8.77;;;5.25;;
56075;SDS011;41951;49.022;12.066;2022-08-27T12:05:48;8.90;;;5.70;;
56075;SDS011;41951;49.022;12.066;2022-08-27T12:08:35;8.88;;;6.05;;
56075;SDS011;41951;49.022;12.066;2022-08-27T12:11:10;9.10;;;7.53;;
56075;SDS011;41951;49.022;12.066;2022-08-27T12:13:56;11.63;;;7.05;;
56075;SDS011;41951;49.022;12.066;2022-08-27T12:19:18;11.45;;;7.53;;
56075;SDS011;41951;49.022;12.066;2022-08-27T12:25:30;12.65;;;7.70;;
56075;SDS011;41951;49.022;12.066;2022-08-27T12:27:57;12.63;;;8.13;;
56075;SDS011;41951;49.022;12.066;2022-08-27T12:30:34;13.02;;;9.20;;
56075;SDS011;41951;49.022;12.066;2022-08-27T12:36:13;15.55;;;11.10;;
56075;SDS011;41951;49.022;12.066;2022-08-27T12:38:48;19.48;;;12.15;;
56075;SDS011;41951;49.022;12.066;2022-08-27T12:41:23;15.13;;;10.80;;
56075;SDS011;41951;49.022;12.066;2022-08-27T12:44:09;15.85;;;11.10;;
56075;SDS011;41951;49.022;12.066;2022-08-27T12:46:47;13.20;;;10.30;;
56075;SDS011;41951;49.022;12.066;2022-08-27T12:49:17;12.68;;;10.45;;
56075;SDS011;41951;49.022;12.066;2022-08-27T12:51:45;13.43;;;10.05;;
56075;SDS011;41951;49.022;12.066;2022-08-27T12:54:27;17.00;;;10.40;;
56075;SDS011;41951;49.022;12.066;2022-08-27T13:05:16;11.52;;;9.63;;
56075;SDS011;41951;49.022;12.066;2022-08-27T13:07:45;11.98;;;8.43;;
56075;SDS011;41951;49.022;12.066;2022-08-27T13:13:06;11.70;;;8.93;;
56075;SDS011;41951;49.022;12.066;2022-08-27T13:15:35;13.18;;;9.02;;
56075;SDS011;41951;49.022;12.066;2022-08-27T13:20:33;11.25;;;8.90;;
56075;SDS011;41951;49.022;12.066;2022-08-27T13:23:02;10.57;;;8.02;;
56075;SDS011;41951;49.022;12.066;2022-08-27T13:25:31;11.73;;;8.48;;
56075;SDS011;41951;49.022;12.066;2022-08-27T13:30:31;10.85;;;8.35;;
56075;SDS011;41951;49.022;12.066;2022-08-27T13:32:59;13.75;;;8.02;;
56075;SDS011;41951;49.022;12.066;2022-08-27T13:35:27;10.52;;;7.68;;
56075;SDS011;41951;49.022;12.066;2022-08-27T13:37:56;11.43;;;6.97;;
56075;SDS011;41951;49.022;12.066;2022-08-27T13:40:27;11.07;;;6.97;;
56075;SDS011;41951;49.022;12.066;2022-08-27T13:42:55;11.77;;;7.35;;
56075;SDS011;41951;49.022;12.066;2022-08-27T13:45:27;11.77;;;7.85;;
56075;SDS011;41951;49.022;12.066;2022-08-27T13:47:53;8.43;;;6.78;;
56075;SDS011;41951;49.022;12.066;2022-08-27T13:50:21;11.77;;;7.53;;
56075;SDS011;41951;49.022;12.066;2022-08-27T13:52:49;11.38;;;7.80;;
56075;SDS011;41951;49.022;12.066;2022-08-27T13:55:34;9.40;;;6.95;;
56075;SDS011;41951;49.022;12.066;2022-08-27T13:57:59;10.25;;;7.70;;
56075;SDS011;41951;49.022;12.066;2022-08-27T14:00:37;10.25;;;6.95;;
56075;SDS011;41951;49.022;12.066;2022-08-27T14:03:19;9.63;;;7.32;;
56075;SDS011;41951;49.022;12.066;2022-08-27T14:05:48;10.00;;;7.65;;
56075;SDS011;41951;49.022;12.066;2022-08-27T14:08:15;12.38;;;6.72;;
56075;SDS011;41951;49.022;12.066;2022-08-27T14:10:49;9.82;;;6.95;;
56075;SDS011;41951;49.022;12.066;2022-08-27T14:13:23;11.48;;;7.35;;
56075;SDS011;41951;49.022;12.066;2022-08-27T14:15:57;9.43;;;6.93;;
56075;SDS011;41951;49.022;12.066;2022-08-27T14:20:49;7.60;;;6.10;;
56075;SDS011;41951;49.022;12.066;2022-08-27T14:23:15;12.27;;;7.47;;
56075;SDS011;41951;49.022;12.066;2022-08-27T14:25:41;7.78;;;6.03;;
56075;SDS011;41951;49.022;12.066;2022-08-27T14:28:07;9.90;;;6.82;;
56075;SDS011;41951;49.022;12.066;2022-08-27T14:30:32;10.70;;;6.45;;
56075;SDS011;41951;49.022;12.066;2022-08-27T14:32:59;9.18;;;6.45;;
56075;SDS011;41951;49.022;12.066;2022-08-27T14:35:27;10.13;;;6.50;;
56075;SDS011;41951;49.022;12.066;2022-08-27T14:37:53;11.98;;;7.20;;
56075;SDS011;41951;49.022;12.066;2022-08-27T14:40:19;8.00;;;6.20;;
56075;SDS011;41951;49.022;12.066;2022-08-27T14:42:45;10.90;;;7.28;;
56075;SDS011;41951;49.022;12.066;2022-08-27T14:45:11;9.82;;;6.82;;
56075;SDS011;41951;49.022;12.066;2022-08-27T14:47:37;8.75;;;6.70;;
56075;SDS011;41951;49.022;12.066;2022-08-27T14:50:08;10.90;;;7.28;;
56075;SDS011;41951;49.022;12.066;2022-08-27T14:52:36;10.50;;;6.78;;
56075;SDS011;41951;49.022;12.066;2022-08-27T14:55:03;11.02;;;6.40;;
56075;SDS011;41951;49.022;12.066;2022-08-27T14:57:30;10.13;;;6.57;;
56075;SDS011;41951;49.022;12.066;2022-08-27T14:59:55;8.55;;;6.93;;
56075;SDS011;41951;49.022;12.066;2022-08-27T15:02:21;10.57;;;6.55;;
56075;SDS011;41951;49.022;12.066;2022-08-27T15:04:47;9.48;;;6.63;;
56075;SDS011;41951;49.022;12.066;2022-08-27T15:07:13;11.30;;;6.88;;
56075;SDS011;41951;49.022;12.066;2022-08-27T15:09:39;11.60;;;7.35;;
56075;SDS011;41951;49.022;12.066;2022-08-27T15:12:05;11.65;;;6.93;;
56075;SDS011;41951;49.022;12.066;2022-08-27T15:14:32;17.38;;;10.13;;
56075;SDS011;41951;49.022;12.066;2022-08-27T15:17:00;9.75;;;7.00;;
56075;SDS011;41951;49.022;12.066;2022-08-27T15:19:26;13.80;;;8.15;;
56075;SDS011;41951;49.022;12.066;2022-08-27T15:21:53;9.63;;;6.35;;
56075;SDS011;41951;49.022;12.066;2022-08-27T15:24:27;10.27;;;6.03;;
56075;SDS011;41951;49.022;12.066;2022-08-27T15:27:02;9.27;;;5.90;;
56075;SDS011;41951;49.022;12.066;2022-08-27T15:29:28;8.65;;;6.38;;
56075;SDS011;41951;49.022;12.066;2022-08-27T15:31:53;9.68;;;5.90;;
56075;SDS011;41951;49.022;12.066;2022-08-27T15:34:19;9.40;;;6.15;;
56075;SDS011;41951;49.022;12.066;2022-08-27T15:36:45;8.95;;;6.32;;
56075;SDS011;41951;49.022;12.066;2022-08-27T15:39:10;7.88;;;6.13;;
56075;SDS011;41951;49.022;12.066;2022-08-27T15:41:36;7.68;;;5.38;;
56075;SDS011;41951;49.022;12.066;2022-08-27T15:44:04;9.63;;;5.97;;
56075;SDS011;41951;49.022;12.066;2022-08-27T15:46:30;7.97;;;5.55;;
56075;SDS011;41951;49.022;12.066;2022-08-27T15:48:55;9.93;;;5.75;;
56075;SDS011;41951;49.022;12.066;2022-08-27T15:51:23;7.72;;;5.65;;
56075;SDS011;41951;49.022;12.066;2022-08-27T15:53:55;6.78;;;4.70;;
56075;SDS011;41951;49.022;12.066;2022-08-27T15:56:21;6.00;;;4.63;;
56075;SDS011;41951;49.022;12.066;2022-08-27T15:58:47;5.50;;;4.40;;
56075;SDS011;41951;49.022;12.066;2022-08-27T16:01:14;8.60;;;4.38;;
56075;SDS011;41951;49.022;12.066;2022-08-27T16:03:46;6.57;;;3.63;;
56075;SDS011;41951;49.022;12.066;2022-08-27T16:06:12;6.75;;;4.10;;